Time;durP1;ratioP1;P1;durP2;ratioP2;P2;SDS_P1;SDS_P2;PMS_P1;PMS_P2;Temp;Humidity;BMP_temperature;BMP_pressure;BME280_temperature;BME280_humidity;BME280_pressure;Samples;Min_cycle;Max_cycle;Signal;HPM_P1;HPM_P2
2022/03/31 00:01:15;;;;;;;15.50;7.10;;;;;;;10.01;94.71;94466.16;5097415;28;20199;-68
2022/03/31 00:03:41;;;;;;;17.97;6.67;;;;;;;10.02;95.07;94465.13;5097066;28;20203;-68
2022/03/31 00:06:08;;;;;;;17.70;6.53;;;;;;;10.09;94.88;94459.81;5098034;28;20474;-68
2022/03/31 00:08:34;;;;;;;19.30;5.77;;;;;;;10.12;94.74;94462.81;5097691;28;20230;-68
2022/03/31 00:11:00;;;;;;;18.63;7.00;;;;;;;10.09;95.41;94463.25;5097033;28;20619;-68
2022/03/31 00:13:29;;;;;;;13.30;4.77;;;;;;;10.21;94.45;94464.16;5097949;28;20267;-68
2022/03/31 00:15:58;;;;;;;15.67;5.97;;;;;;;10.25;94.89;94467.97;5098046;28;20211;-68
2022/03/31 00:18:26;;;;;;;18.60;6.63;;;;;;;10.09;94.96;94457.97;5097482;28;20207;-68
2022/03/31 00:20:52;;;;;;;13.43;6.37;;;;;;;9.92;95.15;94449.00;5097335;28;20256;-68
2022/03/31 00:23:19;;;;;;;16.37;6.17;;;;;;;9.90;96.13;94448.44;5096925;28;20786;-68
2022/03/31 00:25:45;;;;;;;13.47;4.90;;;;;;;9.89;95.71;94448.63;5097607;28;20222;-68
2022/03/31 00:28:12;;;;;;;17.70;7.33;;;;;;;9.70;95.25;94442.53;5097545;28;20191;-67
2022/03/31 00:30:38;;;;;;;14.27;6.07;;;;;;;9.60;96.52;94446.66;5096504;28;20310;-67
2022/03/31 00:33:08;;;;;;;13.57;5.73;;;;;;;9.83;95.28;94442.41;5096625;28;20211;-68
2022/03/31 00:35:35;;;;;;;14.60;6.13;;;;;;;9.84;94.58;94443.22;5097745;28;20283;-68
2022/03/31 00:38:01;;;;;;;13.23;5.17;;;;;;;9.60;95.49;94432.69;5097151;28;20198;-68
2022/03/31 00:40:28;;;;;;;16.80;6.70;;;;;;;9.78;95.96;94438.81;5095270;28;20198;-68
2022/03/31 00:42:57;;;;;;;17.67;6.03;;;;;;;9.82;96.14;94435.53;5096076;28;20203;-68
2022/03/31 00:45:26;;;;;;;20.90;7.27;;;;;;;9.79;95.79;94435.97;5096979;28;20219;-68
2022/03/31 00:47:54;;;;;;;23.20;6.77;;;;;;;9.69;96.10;94429.59;5096143;28;20615;-68
2022/03/31 00:50:22;;;;;;;14.40;5.43;;;;;;;9.85;96.51;94429.84;5096645;28;20831;-67
2022/03/31 00:52:49;;;;;;;11.87;5.20;;;;;;;9.75;96.37;94421.63;5095739;28;20207;-67
2022/03/31 00:55:18;;;;;;;18.20;6.17;;;;;;;9.58;95.77;94422.38;5096114;28;20228;-68
2022/03/31 00:57:46;;;;;;;15.53;7.07;;;;;;;9.36;97.66;94422.97;5096567;28;20235;-67
2022/03/31 01:00:14;;;;;;;22.37;6.43;;;;;;;9.54;97.02;94415.94;5096055;28;20203;-67
2022/03/31 01:02:43;;;;;;;21.93;6.90;;;;;;;9.45;97.50;94413.81;5095745;28;20248;-68
2022/03/31 01:05:11;;;;;;;13.83;5.83;;;;;;;9.73;95.61;94417.63;5096670;28;20219;-68
2022/03/31 01:07:40;;;;;;;17.53;6.60;;;;;;;9.73;96.36;94405.25;5096346;28;20206;-68
2022/03/31 01:10:08;;;;;;;15.17;6.20;;;;;;;9.71;96.17;94407.31;5095948;28;20238;-68
2022/03/31 01:12:35;;;;;;;15.93;6.43;;;;;;;9.69;96.41;94404.09;5094799;28;20207;-68
2022/03/31 01:15:07;;;;;;;17.87;6.33;;;;;;;9.80;95.45;94400.75;5096042;28;20222;-68
2022/03/31 01:17:33;;;;;;;19.53;6.87;;;;;;;9.58;96.44;94403.97;5096085;28;20668;-68
2022/03/31 01:20:00;;;;;;;18.90;5.70;;;;;;;9.61;95.98;94394.84;5095980;28;20191;-68
2022/03/31 01:22:30;;;;;;;20.17;5.80;;;;;;;9.81;96.11;94391.84;5095419;28;20377;-68
2022/03/31 01:24:58;;;;;;;16.73;6.50;;;;;;;9.68;96.59;94385.09;5096063;28;20215;-68
2022/03/31 01:27:25;;;;;;;14.23;6.17;;;;;;;9.66;96.08;94382.69;5095623;28;20286;-67
2022/03/31 01:29:51;;;;;;;14.57;6.47;;;;;;;9.63;96.54;94382.31;5095222;28;20230;-68
2022/03/31 01:32:18;;;;;;;16.57;6.07;;;;;;;9.63;96.38;94377.84;5095608;28;20199;-68
2022/03/31 01:34:45;;;;;;;15.07;6.60;;;;;;;9.70;96.31;94375.97;5096420;28;20199;-68
2022/03/31 01:37:13;;;;;;;15.17;5.67;;;;;;;9.57;96.37;94370.03;5096423;28;20302;-68
2022/03/31 01:39:40;;;;;;;17.03;6.10;;;;;;;9.68;96.42;94370.13;5092995;28;20215;-68
2022/03/31 01:42:08;;;;;;;16.17;6.40;;;;;;;9.70;96.54;94366.25;5095727;28;20206;-68
2022/03/31 01:44:35;;;;;;;19.13;6.87;;;;;;;9.60;96.16;94366.94;5095754;28;20202;-67
2022/03/31 01:47:02;;;;;;;15.80;6.70;;;;;;;9.58;96.27;94363.75;5095765;28;20202;-68
2022/03/31 01:49:28;;;;;;;16.63;6.30;;;;;;;9.46;96.46;94361.03;5095683;28;20218;-68
2022/03/31 01:51:55;;;;;;;17.43;5.80;;;;;;;9.44;96.71;94355.16;5095627;28;20698;-68
2022/03/31 01:54:21;;;;;;;17.97;5.50;;;;;;;9.22;97.80;94353.13;5094999;28;20228;-68
2022/03/31 01:56:48;;;;;;;17.50;5.77;;;;;;;9.45;97.47;94350.72;5095854;28;20226;-68
2022/03/31 01:59:16;;;;;;;15.27;6.03;;;;;;;9.61;97.30;94348.34;5096015;28;20203;-68
2022/03/31 02:01:42;;;;;;;19.90;6.03;;;;;;;9.15;97.90;94342.69;5095898;28;20958;-67
2022/03/31 02:04:09;;;;;;;22.30;7.50;;;;;;;9.30;98.11;94339.72;5094654;28;20264;-67
2022/03/31 02:06:35;;;;;;;14.10;6.60;;;;;;;9.33;97.87;94339.28;5095634;28;20219;-67
2022/03/31 02:09:01;;;;;;;17.23;6.63;;;;;;;9.34;98.26;94340.91;5095383;28;20256;-67
2022/03/31 02:11:28;;;;;;;17.63;7.17;;;;;;;9.47;97.33;94346.88;5095614;28;20203;-68
2022/03/31 02:13:55;;;;;;;15.93;6.73;;;;;;;9.49;97.57;94336.91;5094951;28;20195;-68
2022/03/31 02:16:23;;;;;;;19.27;7.83;;;;;;;9.64;96.98;94336.59;5095549;28;20215;-67
2022/03/31 02:18:49;;;;;;;23.30;6.70;;;;;;;9.35;97.10;94337.25;5095644;28;20199;-68
2022/03/31 02:21:16;;;;;;;19.83;6.80;;;;;;;9.30;97.08;94334.47;5095674;28;20232;-68
2022/03/31 02:23:43;;;;;;;15.73;5.87;;;;;;;9.54;96.74;94326.56;5094956;28;20248;-67
2022/03/31 02:26:10;;;;;;;16.70;5.50;;;;;;;9.30;97.54;94319.50;5099442;28;20215;-68
2022/03/31 02:28:36;;;;;;;18.07;7.13;;;;;;;9.39;97.71;94318.19;5098788;28;20800;-68
2022/03/31 02:31:02;;;;;;;15.73;5.87;;;;;;;9.53;96.30;94319.69;5098934;28;20640;-68
2022/03/31 02:33:30;;;;;;;15.20;6.37;;;;;;;9.67;96.52;94309.88;5098724;28;20533;-68
2022/03/31 02:35:57;;;;;;;19.17;7.13;;;;;;;9.45;97.01;94311.28;5098180;28;20618;-68
2022/03/31 02:38:23;;;;;;;19.50;6.70;;;;;;;9.46;96.89;94302.41;5099389;28;20534;-68
2022/03/31 02:40:50;;;;;;;18.93;6.70;;;;;;;9.50;96.78;94299.09;5096361;28;20199;-68
2022/03/31 02:43:16;;;;;;;18.73;9.30;;;;;;;9.55;96.34;94301.09;5097902;28;20207;-67
2022/03/31 02:45:42;;;;;;;23.57;8.07;;;;;;;9.24;97.23;94298.53;5098988;28;20231;-68
2022/03/31 02:48:09;;;;;;;23.87;7.73;;;;;;;9.35;97.76;94287.31;5096211;28;20232;-67
2022/03/31 02:50:37;;;;;;;23.63;7.77;;;;;;;9.48;97.26;94280.13;5098332;28;20920;-68
2022/03/31 02:55:47;;;;;;;17.93;6.83;;;;;;;9.16;98.47;94275.16;5099402;28;20225;-68
2022/03/31 02:58:14;;;;;;;29.17;7.40;;;;;;;9.17;98.19;94274.16;5098493;28;20207;-67
2022/03/31 03:00:40;;;;;;;22.10;7.67;;;;;;;9.18;98.72;94278.38;5098356;28;20207;-68
2022/03/31 03:03:08;;;;;;;21.13;7.57;;;;;;;9.25;97.18;94273.88;5098103;28;21063;-68
2022/03/31 03:05:35;;;;;;;19.17;7.33;;;;;;;9.26;97.87;94270.22;5098013;28;20221;-68
2022/03/31 03:08:03;;;;;;;21.57;7.80;;;;;;;9.37;97.78;94264.28;5098601;28;20226;-67
2022/03/31 03:10:31;;;;;;;21.73;7.77;;;;;;;9.31;98.29;94262.50;5098862;28;20218;-67
2022/03/31 03:12:57;;;;;;;19.17;6.97;;;;;;;9.43;97.41;94268.63;5097475;28;20202;-68
2022/03/31 03:15:25;;;;;;;19.27;6.10;;;;;;;9.53;96.75;94269.75;5098543;28;20714;-68
2022/03/31 03:17:52;;;;;;;15.53;6.40;;;;;;;9.54;96.74;94265.31;5098403;28;20260;-68
2022/03/31 03:20:18;;;;;;;21.43;7.83;;;;;;;9.49;96.17;94270.41;5098447;28;20647;-68
2022/03/31 03:22:46;;;;;;;17.47;5.80;;;;;;;9.74;96.27;94262.22;5097438;28;20206;-68
2022/03/31 03:25:16;;;;;;;22.00;7.30;;;;;;;9.72;96.28;94261.66;5098042;28;20215;-68
2022/03/31 03:27:43;;;;;;;23.83;8.00;;;;;;;9.66;95.80;94263.53;5098424;28;20287;-68
2022/03/31 03:30:11;;;;;;;19.23;8.23;;;;;;;9.55;96.14;94249.31;5097962;28;20219;-68
2022/03/31 03:32:38;;;;;;;27.53;7.40;;;;;;;9.47;96.30;94243.53;5097193;28;21056;-68
2022/03/31 03:35:05;;;;;;;18.80;6.77;;;;;;;9.50;96.93;94246.53;5098378;28;20680;-68
2022/03/31 03:37:32;;;;;;;24.63;8.17;;;;;;;9.33;97.60;94244.66;5097439;28;20230;-69
2022/03/31 03:39:58;;;;;;;26.73;7.40;;;;;;;9.33;97.30;94240.25;5095505;28;20415;-68
2022/03/31 03:42:26;;;;;;;24.07;8.30;;;;;;;9.53;97.39;94248.72;5097429;28;20199;-68
2022/03/31 03:44:52;;;;;;;16.27;5.97;;;;;;;9.38;96.97;94243.03;5097921;28;20230;-68
2022/03/31 03:47:19;;;;;;;22.17;7.83;;;;;;;9.38;96.99;94250.09;5097324;28;20230;-68
2022/03/31 03:49:45;;;;;;;31.53;8.10;;;;;;;9.45;96.94;94249.00;5098239;28;20555;-68
2022/03/31 03:52:11;;;;;;;23.60;7.17;;;;;;;9.36;97.03;94254.78;5096897;28;20251;-68
2022/03/31 03:54:38;;;;;;;23.23;7.80;;;;;;;9.50;96.79;94251.00;5096556;28;20664;-67
2022/03/31 03:57:05;;;;;;;20.30;7.10;;;;;;;9.60;96.55;94249.47;5097930;28;20199;-68
2022/03/31 03:59:33;;;;;;;20.87;7.10;;;;;;;9.76;95.79;94254.13;5098428;28;20558;-68
2022/03/31 04:02:01;;;;;;;19.13;7.30;;;;;;;9.43;96.57;94258.94;5096786;28;20208;-68
2022/03/31 04:04:27;;;;;;;17.30;8.17;;;;;;;9.41;97.26;94252.31;5096323;28;20195;-67
2022/03/31 04:06:54;;;;;;;29.27;8.20;;;;;;;9.38;97.00;94247.44;5097630;28;20227;-68
2022/03/31 04:09:20;;;;;;;21.63;6.97;;;;;;;9.45;96.39;94243.75;5096745;28;20199;-68
2022/03/31 04:11:46;;;;;;;17.03;7.60;;;;;;;9.47;97.02;94248.78;5097283;28;20219;-67
2022/03/31 04:14:13;;;;;;;20.93;8.30;;;;;;;9.40;97.20;94242.78;5096641;28;20668;-68
2022/03/31 04:16:41;;;;;;;19.37;7.77;;;;;;;9.19;98.86;94245.84;5096760;28;20219;-67
2022/03/31 04:19:07;;;;;;;20.57;7.83;;;;;;;8.98;99.22;94245.44;5096764;28;20210;-69
2022/03/31 04:21:34;;;;;;;23.17;7.83;;;;;;;9.25;98.09;94237.06;5096884;28;20206;-68
2022/03/31 04:24:00;;;;;;;19.20;7.30;;;;;;;9.07;100.00;94242.31;5096116;28;20202;-68
2022/03/31 04:26:27;;;;;;;23.90;8.23;;;;;;;9.13;99.61;94244.06;5097095;28;20230;-68
2022/03/31 04:28:53;;;;;;;25.97;7.80;;;;;;;9.24;98.77;94232.84;5096800;28;20203;-67
2022/03/31 04:31:20;;;;;;;26.33;9.43;;;;;;;9.20;98.81;94240.38;5096503;28;20470;-68
2022/03/31 04:33:48;;;;;;;20.20;7.20;;;;;;;9.45;98.54;94241.13;5095990;28;20213;-68
2022/03/31 04:36:15;;;;;;;18.53;8.13;;;;;;;9.41;97.97;94236.53;5096283;28;20226;-68
2022/03/31 04:38:41;;;;;;;32.00;8.80;;;;;;;9.33;98.35;94234.16;5094726;28;20222;-68
2022/03/31 04:41:08;;;;;;;25.90;8.53;;;;;;;9.09;99.52;94237.66;5096248;28;20213;-67
2022/03/31 04:43:35;;;;;;;28.93;7.87;;;;;;;9.33;98.26;94239.41;5096039;28;20663;-68
2022/03/31 04:46:01;;;;;;;20.43;6.77;;;;;;;9.37;97.39;94245.88;5097209;28;20306;-68
2022/03/31 04:48:29;;;;;;;27.83;9.00;;;;;;;9.32;98.95;94243.88;5096874;28;20210;-68
2022/03/31 04:50:57;;;;;;;27.80;8.70;;;;;;;9.53;98.00;94245.28;5096525;28;20233;-68
2022/03/31 04:53:23;;;;;;;27.07;9.60;;;;;;;9.36;98.10;94239.00;5096582;28;20206;-68
2022/03/31 04:55:49;;;;;;;24.80;5.90;;;;;;;9.49;97.21;94234.41;5097534;28;20226;-68
2022/03/31 04:58:16;;;;;;;16.13;6.13;;;;;;;10.07;94.15;94230.28;5096576;28;20387;-69
2022/03/31 05:00:42;;;;;;;20.00;8.13;;;;;;;10.02;93.79;94228.34;5096893;28;20209;-67
2022/03/31 05:03:09;;;;;;;24.33;8.13;;;;;;;9.88;94.83;94229.50;5096649;28;20195;-68
2022/03/31 05:05:35;;;;;;;22.53;7.23;;;;;;;9.62;96.20;94229.00;5096123;28;20226;-68
2022/03/31 05:08:03;;;;;;;28.20;7.50;;;;;;;9.45;97.37;94232.44;5097461;28;20203;-68
2022/03/31 05:10:30;;;;;;;35.33;9.37;;;;;;;9.38;97.32;94234.31;5097249;28;20276;-67
2022/03/31 05:12:56;;;;;;;22.43;8.63;;;;;;;9.08;98.85;94227.34;5095968;28;20199;-68
2022/03/31 05:15:22;;;;;;;16.43;6.97;;;;;;;8.94;99.64;94226.66;5097060;28;20663;-68
2022/03/31 05:17:49;;;;;;;20.53;7.93;;;;;;;9.07;99.81;94239.66;5097023;28;20978;-68
2022/03/31 05:20:15;;;;;;;27.80;8.87;;;;;;;8.87;100.00;94233.81;5096635;28;20990;-67
2022/03/31 05:22:42;;;;;;;25.53;8.93;;;;;;;8.97;100.00;94241.19;5095681;28;20203;-68
2022/03/31 05:25:11;;;;;;;18.57;7.57;;;;;;;9.30;100.00;94234.59;5096888;28;20218;-68
2022/03/31 05:27:42;;;;;;;25.77;7.23;;;;;;;9.14;100.00;94241.22;5097092;28;20199;-68
2022/03/31 05:30:09;;;;;;;24.40;8.70;;;;;;;9.27;100.00;94233.22;5096958;28;20203;-68
2022/03/31 05:32:35;;;;;;;23.17;8.77;;;;;;;9.21;99.61;94230.66;5094844;28;20379;-68
2022/03/31 05:35:02;;;;;;;22.77;8.40;;;;;;;9.02;100.00;94231.63;5096304;28;20229;-68
2022/03/31 05:37:29;;;;;;;27.37;9.90;;;;;;;9.07;100.00;94234.41;5096982;28;20238;-68
2022/03/31 05:39:55;;;;;;;29.97;8.30;;;;;;;9.08;100.00;94243.91;5094376;28;20210;-68
2022/03/31 05:42:23;;;;;;;21.87;8.70;;;;;;;9.38;100.00;94234.31;5096134;28;20192;-67
2022/03/31 05:44:50;;;;;;;33.53;9.73;;;;;;;9.34;100.00;94235.78;5096489;28;21021;-68
2022/03/31 05:47:16;;;;;;;23.40;8.10;;;;;;;9.38;99.53;94229.06;5096270;28;20200;-68
2022/03/31 05:49:42;;;;;;;23.30;9.10;;;;;;;9.36;99.37;94233.75;5096776;28;20195;-68
2022/03/31 05:52:09;;;;;;;23.07;7.90;;;;;;;9.19;100.00;94230.09;5096423;28;20215;-67
2022/03/31 05:54:36;;;;;;;21.50;8.97;;;;;;;8.85;100.00;94235.03;5096165;28;20199;-68
2022/03/31 05:57:03;;;;;;;33.47;10.13;;;;;;;8.92;100.00;94233.16;5096493;28;20261;-67
2022/03/31 05:59:30;;;;;;;19.50;7.73;;;;;;;9.24;100.00;94232.84;5097812;28;20214;-67
2022/03/31 06:01:57;;;;;;;27.37;8.03;;;;;;;8.93;100.00;94237.38;5099931;28;20202;-68
2022/03/31 06:04:23;;;;;;;30.13;8.30;;;;;;;8.98;100.00;94227.84;5099993;28;20195;-67
2022/03/31 06:06:50;;;;;;;22.37;7.23;;;;;;;9.41;100.00;94220.75;5100189;28;20219;-68
2022/03/31 06:09:17;;;;;;;31.33;9.87;;;;;;;9.19;100.00;94214.31;5099876;28;20698;-68
2022/03/31 06:11:44;;;;;;;30.90;9.40;;;;;;;9.31;100.00;94220.44;5100025;28;20222;-69
2022/03/31 06:14:11;;;;;;;30.23;8.80;;;;;;;8.98;100.00;94230.47;5099279;28;20207;-68
2022/03/31 06:16:39;;;;;;;30.30;10.03;;;;;;;9.04;100.00;94234.88;5100215;28;21151;-68
2022/03/31 06:19:08;;;;;;;35.67;9.57;;;;;;;9.12;100.00;94227.50;5099944;28;20203;-68
2022/03/31 06:21:34;;;;;;;33.47;10.63;;;;;;;9.14;100.00;94229.94;5099974;28;20238;-67
2022/03/31 06:24:01;;;;;;;25.60;9.70;;;;;;;9.13;100.00;94233.56;5099222;28;20614;-68
2022/03/31 06:26:28;;;;;;;28.33;7.27;;;;;;;9.21;100.00;94226.19;5099500;28;20230;-68
2022/03/31 06:28:55;;;;;;;28.87;8.07;;;;;;;9.01;100.00;94229.22;5099332;28;20206;-67
2022/03/31 06:31:22;;;;;;;26.70;9.33;;;;;;;9.13;100.00;94231.72;5099895;28;20234;-68
2022/03/31 06:33:51;;;;;;;28.93;7.97;;;;;;;9.27;100.00;94229.78;5097551;28;20195;-68
2022/03/31 06:36:18;;;;;;;27.17;8.00;;;;;;;9.29;100.00;94233.81;5098286;28;20774;-67
2022/03/31 06:38:44;;;;;;;26.17;8.47;;;;;;;9.14;100.00;94224.66;5096303;28;20621;-68
2022/03/31 06:41:13;;;;;;;29.47;9.20;;;;;;;9.15;100.00;94221.00;5098599;28;20195;-68
2022/03/31 06:43:41;;;;;;;28.13;9.27;;;;;;;9.14;100.00;94229.94;5097793;28;20191;-67
2022/03/31 06:46:07;;;;;;;27.27;9.53;;;;;;;9.02;100.00;94222.97;5099507;28;20223;-68
2022/03/31 06:48:36;;;;;;;31.93;10.53;;;;;;;9.24;100.00;94222.31;5098672;28;20202;-67
2022/03/31 06:51:04;;;;;;;33.33;10.60;;;;;;;9.01;100.00;94224.75;5097973;28;20219;-67
2022/03/31 06:53:31;;;;;;;26.73;9.93;;;;;;;9.12;100.00;94226.69;5097196;28;20206;-68
2022/03/31 06:55:58;;;;;;;34.93;9.73;;;;;;;9.27;100.00;94221.91;5098486;28;20223;-67
2022/03/31 06:58:27;;;;;;;25.93;10.43;;;;;;;9.10;100.00;94224.28;5098761;28;20206;-68
2022/03/31 07:00:54;;;;;;;22.00;8.53;;;;;;;9.23;100.00;94223.38;5098382;28;20207;-68
2022/03/31 07:03:20;;;;;;;33.37;8.60;;;;;;;9.14;100.00;94220.22;5097786;28;20203;-67
2022/03/31 07:05:46;;;;;;;33.00;11.00;;;;;;;9.05;100.00;94223.34;5097874;28;20223;-67
2022/03/31 07:08:14;;;;;;;24.60;8.70;;;;;;;9.04;100.00;94224.34;5098182;28;20210;-68
2022/03/31 07:10:41;;;;;;;29.70;8.73;;;;;;;9.10;100.00;94228.75;5097520;28;20195;-67
2022/03/31 07:13:07;;;;;;;25.33;8.63;;;;;;;9.27;100.00;94222.69;5097534;28;20214;-67
2022/03/31 07:15:34;;;;;;;19.40;8.97;;;;;;;8.82;100.00;94220.50;5097805;28;20675;-68
2022/03/31 07:18:03;;;;;;;24.70;8.67;;;;;;;9.22;100.00;94211.25;5098212;28;20195;-68
2022/03/31 07:20:29;;;;;;;41.50;9.67;;;;;;;8.86;100.00;94213.81;5097669;28;20731;-66
2022/03/31 07:22:56;;;;;;;31.63;9.60;;;;;;;9.25;100.00;94205.53;5097138;28;20686;-67
2022/03/31 07:25:24;;;;;;;20.07;9.17;;;;;;;9.47;100.00;94204.91;5098723;28;20222;-68
2022/03/31 07:27:51;;;;;;;16.70;7.03;;;;;;;9.20;100.00;94208.03;5098458;28;20195;-67
2022/03/31 07:30:19;;;;;;;19.87;6.10;;;;;;;9.08;100.00;94209.75;5099133;28;20206;-67
2022/03/31 07:32:50;;;;;;;31.03;7.50;;;;;;;9.39;100.00;94192.03;5098331;28;20664;-67
2022/03/31 07:35:17;;;;;;;25.50;6.93;;;;;;;9.16;100.00;94204.22;5098602;28;20219;-67
2022/03/31 07:37:43;;;;;;;22.93;6.77;;;;;;;9.01;100.00;94209.00;5098519;28;20234;-67
2022/03/31 07:40:11;;;;;;;16.07;6.20;;;;;;;9.07;100.00;94207.34;5095090;28;20214;-67
2022/03/31 07:42:38;;;;;;;19.73;5.63;;;;;;;9.24;100.00;94201.31;5097727;28;20199;-67
2022/03/31 07:45:06;;;;;;;18.10;6.07;;;;;;;9.10;100.00;94198.03;5098794;28;20220;-68
2022/03/31 07:47:33;;;;;;;12.33;5.60;;;;;;;8.78;100.00;94202.75;5098459;28;20195;-67
2022/03/31 07:49:59;;;;;;;16.73;5.30;;;;;;;8.99;100.00;94194.50;5097911;28;20199;-67
2022/03/31 07:52:25;;;;;;;18.37;7.70;;;;;;;8.91;100.00;94203.47;5097847;28;20219;-68
2022/03/31 07:54:52;;;;;;;24.13;7.60;;;;;;;9.11;100.00;94196.19;5098566;28;20210;-67
2022/03/31 07:57:19;;;;;;;25.40;8.03;;;;;;;9.24;100.00;94191.63;5097779;28;20671;-68
2022/03/31 07:59:46;;;;;;;16.77;6.03;;;;;;;9.57;100.00;94186.00;5097816;28;20219;-68
2022/03/31 08:02:13;;;;;;;23.37;7.17;;;;;;;9.31;100.00;94194.16;5097980;28;20601;-67
2022/03/31 08:04:39;;;;;;;28.17;9.03;;;;;;;9.56;100.00;94184.38;5097699;28;20572;-68
2022/03/31 08:07:06;;;;;;;17.63;6.63;;;;;;;9.23;100.00;94194.47;5098030;28;20202;-67
2022/03/31 08:09:32;;;;;;;24.00;8.70;;;;;;;9.36;100.00;94192.50;5098036;28;20207;-68
2022/03/31 08:11:59;;;;;;;18.47;7.43;;;;;;;9.49;100.00;94181.03;5097916;28;20222;-68
2022/03/31 08:14:26;;;;;;;20.90;7.40;;;;;;;9.43;100.00;94184.53;5096380;28;20205;-68
2022/03/31 08:16:54;;;;;;;19.67;7.33;;;;;;;9.52;100.00;94178.78;5097702;28;20215;-66
2022/03/31 08:19:20;;;;;;;19.70;8.10;;;;;;;9.61;100.00;94187.16;5097978;28;20199;-68
2022/03/31 08:21:49;;;;;;;14.40;5.40;;;;;;;9.62;100.00;94183.50;5096480;28;20281;-67
2022/03/31 08:24:16;;;;;;;22.40;8.13;;;;;;;9.52;100.00;94185.84;5097145;28;20199;-68
2022/03/31 08:26:45;;;;;;;27.20;8.33;;;;;;;9.58;100.00;94179.72;5097122;28;20218;-67
2022/03/31 08:29:11;;;;;;;21.03;8.37;;;;;;;9.58;100.00;94183.13;5097468;28;20203;-67
2022/03/31 08:31:39;;;;;;;12.97;5.57;;;;;;;9.59;100.00;94176.06;5097321;28;20222;-67
2022/03/31 08:34:08;;;;;;;21.73;7.20;;;;;;;9.52;100.00;94183.22;5097137;28;20203;-67
2022/03/31 08:36:34;;;;;;;17.03;6.57;;;;;;;9.38;100.00;94190.47;5097021;28;20246;-68
2022/03/31 08:39:01;;;;;;;16.83;7.67;;;;;;;9.32;100.00;94186.06;5094143;28;20808;-67
2022/03/31 08:41:29;;;;;;;23.63;7.97;;;;;;;9.53;100.00;94182.19;5097533;28;20199;-67
2022/03/31 08:43:56;;;;;;;30.87;8.97;;;;;;;9.22;100.00;94198.09;5096331;28;20283;-67
2022/03/31 08:46:23;;;;;;;18.03;6.23;;;;;;;9.17;100.00;94192.69;5097044;28;20219;-67
2022/03/31 08:48:50;;;;;;;18.00;6.23;;;;;;;9.19;100.00;94193.31;5097031;28;20672;-67
2022/03/31 08:51:18;;;;;;;20.50;7.97;;;;;;;9.56;100.00;94181.75;5097372;28;20211;-67
2022/03/31 08:53:44;;;;;;;16.47;6.43;;;;;;;9.36;100.00;94189.06;5096559;28;20203;-67
2022/03/31 08:56:11;;;;;;;26.60;9.43;;;;;;;9.42;100.00;94188.16;5096931;28;21007;-68
2022/03/31 08:58:38;;;;;;;22.40;7.00;;;;;;;9.29;100.00;94183.06;5097090;28;20194;-68
2022/03/31 09:01:04;;;;;;;19.33;7.43;;;;;;;9.55;100.00;94180.97;5097385;28;20860;-67
2022/03/31 09:03:34;;;;;;;18.03;7.23;;;;;;;9.73;100.00;94179.09;5096059;28;20191;-67
2022/03/31 09:06:01;;;;;;;23.03;7.47;;;;;;;9.54;100.00;94178.56;5096384;28;20785;-68
2022/03/31 09:08:28;;;;;;;30.20;9.30;;;;;;;9.98;100.00;94181.63;5096683;28;20206;-68
2022/03/31 09:11:00;;;;;;;17.53;8.70;;;;;;;9.73;100.00;94178.31;5097087;28;20206;-67
2022/03/31 09:13:28;;;;;;;27.53;8.83;;;;;;;9.72;100.00;94172.25;5096217;28;20330;-67
2022/03/31 09:15:57;;;;;;;19.60;8.47;;;;;;;9.87;100.00;94169.22;5097233;28;20378;-68
2022/03/31 09:18:25;;;;;;;18.70;8.07;;;;;;;10.24;100.00;94171.56;5097339;28;20210;-67
2022/03/31 09:20:54;;;;;;;28.30;9.10;;;;;;;10.17;100.00;94162.97;5096749;28;20285;-67
2022/03/31 09:23:22;;;;;;;22.53;9.23;;;;;;;10.09;100.00;94157.22;5095875;28;20195;-67
2022/03/31 09:25:51;;;;;;;13.37;6.47;;;;;;;9.92;100.00;94166.75;5096565;28;20229;-68
2022/03/31 09:28:19;;;;;;;14.70;6.80;;;;;;;10.20;100.00;94170.41;5097110;28;20203;-68
2022/03/31 09:30:48;;;;;;;23.43;9.53;;;;;;;10.37;100.00;94166.91;5097246;28;20260;-68
2022/03/31 09:33:26;;;;;;;19.47;7.47;;;;;;;10.82;99.24;94151.41;5096592;28;20334;-67
2022/03/31 09:35:57;;;;;;;25.13;8.30;;;;;;;10.73;100.00;94158.03;5100971;28;20735;-68
2022/03/31 09:38:23;;;;;;;22.03;7.83;;;;;;;10.71;98.57;94158.25;5100925;28;20633;-68
2022/03/31 09:40:51;;;;;;;19.07;7.10;;;;;;;10.55;97.97;94158.94;5097103;28;20679;-68
2022/03/31 09:43:17;;;;;;;22.73;8.77;;;;;;;10.54;100.00;94154.69;5100228;28;20191;-68
2022/03/31 09:45:45;;;;;;;24.20;7.27;;;;;;;10.98;98.16;94160.25;5100536;28;20670;-68
2022/03/31 09:48:19;;;;;;;24.00;8.20;;;;;;;11.09;96.79;94156.78;5100188;28;20210;-68
2022/03/31 09:50:45;;;;;;;21.73;7.63;;;;;;;10.88;97.60;94150.50;5100228;28;20202;-68
2022/03/31 09:53:13;;;;;;;27.93;8.30;;;;;;;10.91;96.49;94150.84;5099792;28;20218;-68
2022/03/31 09:55:39;;;;;;;23.00;8.50;;;;;;;11.01;96.38;94149.22;5100313;28;20230;-68
2022/03/31 09:58:09;;;;;;;17.03;6.83;;;;;;;10.95;98.39;94158.03;5100738;28;21137;-69
2022/03/31 10:00:35;;;;;;;29.43;7.53;;;;;;;11.08;96.27;94149.13;5100585;28;20207;-68
2022/03/31 10:03:04;;;;;;;16.20;6.27;;;;;;;10.62;98.75;94153.56;5099571;28;20195;-68
2022/03/31 10:05:33;;;;;;;18.90;6.83;;;;;;;11.07;98.70;94153.59;5100019;28;20756;-68
2022/03/31 10:08:00;;;;;;;20.53;8.40;;;;;;;10.98;97.59;94149.72;5101149;28;20589;-68
2022/03/31 10:10:28;;;;;;;27.80;8.73;;;;;;;10.74;97.26;94152.53;5100960;28;20196;-68
2022/03/31 10:13:00;;;;;;;25.47;8.33;;;;;;;11.04;97.13;94146.13;5098660;28;21578;-68
2022/03/31 10:15:34;;;;;;;14.57;6.73;;;;;;;10.74;98.29;94157.00;5100596;28;20229;-68
2022/03/31 10:18:01;;;;;;;17.83;6.83;;;;;;;10.72;96.83;94157.25;5100244;28;20202;-68
2022/03/31 10:20:27;;;;;;;27.30;8.03;;;;;;;10.57;97.96;94153.44;5101113;28;20651;-68
2022/03/31 10:25:50;;;;;;;21.73;8.03;;;;;;;10.99;96.31;94146.00;5062213;28;20222;-68
2022/03/31 10:28:20;;;;;;;16.97;7.63;;;;;;;10.75;98.27;94140.97;5099363;28;20204;-68
2022/03/31 10:30:56;;;;;;;19.50;6.93;;;;;;;10.99;97.83;94143.38;5099986;28;20203;-68
2022/03/31 10:33:31;;;;;;;21.47;8.30;;;;;;;11.32;96.46;94145.44;5099293;28;20219;-68
2022/03/31 10:36:12;;;;;;;21.30;6.77;;;;;;;11.16;96.39;94136.41;5099392;28;20250;-68
2022/03/31 10:38:40;;;;;;;17.87;7.77;;;;;;;10.86;97.86;94129.66;5099366;28;20201;-68
2022/03/31 10:41:11;;;;;;;22.47;8.37;;;;;;;11.00;97.48;94131.81;5098464;28;20633;-68
2022/03/31 10:43:45;;;;;;;13.97;5.77;;;;;;;10.95;98.15;94131.69;5099357;28;20206;-69
2022/03/31 10:46:17;;;;;;;23.90;6.60;;;;;;;11.18;98.69;94134.31;5098874;28;20215;-69
2022/03/31 10:48:51;;;;;;;24.60;7.57;;;;;;;11.48;97.31;94119.16;5099680;28;20227;-68
2022/03/31 10:51:18;;;;;;;22.17;7.47;;;;;;;11.25;97.32;94121.00;5099727;28;20215;-68
2022/03/31 10:53:51;;;;;;;24.80;7.80;;;;;;;11.31;97.53;94123.53;5098758;28;20234;-69
2022/03/31 10:56:20;;;;;;;17.17;7.87;;;;;;;11.43;96.91;94119.06;5099303;28;20230;-68
2022/03/31 10:58:46;;;;;;;20.87;8.17;;;;;;;11.55;95.51;94121.69;5099408;28;20199;-69
2022/03/31 11:01:13;;;;;;;17.20;7.67;;;;;;;11.25;94.33;94108.66;5099341;28;20199;-68
2022/03/31 11:03:42;;;;;;;22.80;7.97;;;;;;;11.63;96.53;94108.91;5098323;28;20203;-68
2022/03/31 11:06:09;;;;;;;26.63;7.60;;;;;;;11.37;96.33;94112.06;5099141;28;20321;-68
2022/03/31 11:08:43;;;;;;;22.10;7.90;;;;;;;11.88;94.06;94109.41;5099198;28;20195;-68
2022/03/31 11:11:18;;;;;;;25.97;9.40;;;;;;;11.69;93.46;94111.41;5099398;28;20382;-68
2022/03/31 11:13:45;;;;;;;23.77;6.73;;;;;;;11.48;94.97;94103.34;5098381;28;20694;-68
2022/03/31 11:16:15;;;;;;;21.33;6.80;;;;;;;11.39;95.66;94104.72;5098885;28;20219;-69
2022/03/31 11:18:43;;;;;;;27.20;8.17;;;;;;;11.37;95.65;94106.78;5098027;28;20210;-68
2022/03/31 11:21:10;;;;;;;24.63;7.30;;;;;;;11.29;95.98;94101.06;5099006;28;20256;-68
2022/03/31 11:23:46;;;;;;;16.30;6.20;;;;;;;11.69;94.33;94094.81;5098270;28;20191;-69
2022/03/31 11:26:16;;;;;;;23.67;8.23;;;;;;;11.65;94.26;94102.38;5098799;28;20246;-68
2022/03/31 11:28:45;;;;;;;23.53;7.27;;;;;;;11.43;94.82;94095.31;5098383;28;20195;-68
2022/03/31 11:31:13;;;;;;;27.67;7.80;;;;;;;11.52;94.58;94098.41;5098601;28;20331;-68
2022/03/31 11:33:40;;;;;;;17.60;6.50;;;;;;;11.21;95.18;94090.88;5097735;28;20444;-68
2022/03/31 11:36:08;;;;;;;19.53;6.27;;;;;;;11.32;96.82;94093.50;5098491;28;20704;-68